Time;durP1;ratioP1;P1;durP2;ratioP2;P2;SDS_P1;SDS_P2;PMS_P1;PMS_P2;Temp;Humidity;BMP_temperature;BMP_pressure;BME280_temperature;BME280_humidity;BME280_pressure;Samples;Min_cycle;Max_cycle;Signal;HPM_P1;HPM_P2
2022/05/27 00:00:53;;;;;;;14.32;4.18;;;14.80;99.90;;;;;;5079985;28;20123;-60
2022/05/27 00:03:19;;;;;;;19.42;4.65;;;14.80;99.90;;;;;;5115108;28;20488;-60
2022/05/27 00:05:50;;;;;;;13.57;3.75;;;14.80;99.90;;;;;;5115004;28;20100;-60
2022/05/27 00:08:16;;;;;;;13.80;4.28;;;14.70;99.90;;;;;;5114923;28;20545;-59
2022/05/27 00:10:42;;;;;;;17.13;4.30;;;14.70;99.90;;;;;;5096822;28;20365;-60
2022/05/27 00:13:08;;;;;;;15.30;4.05;;;14.70;99.90;;;;;;5115100;28;20048;-59
2022/05/27 00:15:34;;;;;;;19.85;4.47;;;14.70;99.90;;;;;;5096424;28;20040;-60
2022/05/27 00:18:00;;;;;;;17.08;4.00;;;14.60;99.90;;;;;;5114930;28;20588;-59
2022/05/27 00:20:26;;;;;;;17.02;4.30;;;14.60;99.90;;;;;;5080046;28;20036;-61
2022/05/27 00:22:52;;;;;;;15.10;3.95;;;14.50;99.90;;;;;;5114671;28;20048;-60
2022/05/27 00:25:19;;;;;;;19.55;4.35;;;14.50;99.90;;;;;;5096834;28;20042;-59
2022/05/27 00:27:44;;;;;;;16.13;4.22;;;14.40;99.90;;;;;;5114519;28;20048;-60
2022/05/27 00:30:11;;;;;;;13.20;3.95;;;14.40;99.90;;;;;;5114494;28;20504;-60
2022/05/27 00:32:38;;;;;;;19.13;4.22;;;14.40;99.90;;;;;;5114422;28;20182;-60
2022/05/27 00:35:04;;;;;;;18.15;4.43;;;14.40;99.90;;;;;;5114541;28;20051;-60
2022/05/27 00:37:30;;;;;;;23.30;4.30;;;14.30;99.90;;;;;;5113706;28;20055;-60
2022/05/27 00:39:56;;;;;;;16.42;3.92;;;14.30;99.90;;;;;;5114226;28;20310;-60
2022/05/27 00:42:22;;;;;;;20.23;4.65;;;14.30;99.90;;;;;;5062858;28;20051;-61
2022/05/27 00:44:48;;;;;;;12.27;4.07;;;14.20;99.90;;;;;;5095891;28;20078;-60
2022/05/27 00:47:18;;;;;;;18.02;4.30;;;14.20;99.90;;;;;;5114300;28;20502;-60
2022/05/27 00:49:53;;;;;;;16.90;4.10;;;14.20;99.90;;;;;;5113525;28;20043;-59
2022/05/27 00:52:21;;;;;;;13.57;3.80;;;14.10;99.90;;;;;;5114108;28;20132;-61
2022/05/27 00:54:47;;;;;;;16.50;4.20;;;14.10;99.90;;;;;;5113812;28;20043;-61
2022/05/27 00:57:24;;;;;;;12.50;3.97;;;14.10;99.90;;;;;;5095882;28;20263;-60
2022/05/27 01:00:00;;;;;;;14.68;3.83;;;14.10;99.90;;;;;;5113805;28;20043;-59
2022/05/27 01:02:27;;;;;;;15.45;3.70;;;14.10;99.90;;;;;;5078577;28;20479;-61
2022/05/27 01:04:52;;;;;;;13.32;3.53;;;14.10;99.90;;;;;;5095701;28;20059;-59
2022/05/27 01:07:18;;;;;;;15.02;4.28;;;14.00;99.90;;;;;;5113761;28;20043;-60
2022/05/27 01:09:48;;;;;;;15.70;3.75;;;14.00;99.90;;;;;;5095544;28;20051;-61
2022/05/27 01:12:22;;;;;;;14.68;4.20;;;14.00;99.90;;;;;;5113743;28;20455;-59
2022/05/27 01:15:02;;;;;;;17.08;4.22;;;14.00;99.90;;;;;;5095436;28;20393;-60
2022/05/27 01:17:50;;;;;;;25.63;3.80;;;13.90;99.90;;;;;;5113399;28;20047;-60
2022/05/27 01:20:42;;;;;;;12.25;3.67;;;13.90;99.90;;;;;;5113762;28;20480;-60
2022/05/27 01:23:20;;;;;;;15.25;3.20;;;13.90;99.90;;;;;;5102030;28;20404;-60
2022/05/27 01:26:10;;;;;;;15.63;3.63;;;13.80;99.90;;;;;;5113334;28;20043;-59
2022/05/27 01:28:51;;;;;;;15.75;3.60;;;13.80;99.90;;;;;;5113512;28;20054;-60
2022/05/27 01:31:32;;;;;;;15.10;3.60;;;13.70;99.90;;;;;;5113378;28;20070;-60
2022/05/27 01:34:10;;;;;;;15.27;3.67;;;13.60;99.90;;;;;;5113148;28;20047;-60
2022/05/27 01:36:59;;;;;;;11.45;3.60;;;13.60;99.90;;;;;;5095028;28;20050;-59
2022/05/27 01:39:46;;;;;;;16.30;3.55;;;13.50;99.90;;;;;;5113062;28;20527;-60
2022/05/27 01:42:38;;;;;;;12.27;3.42;;;13.50;99.90;;;;;;5113258;28;20044;-61
2022/05/27 01:45:12;;;;;;;18.20;3.72;;;13.50;99.90;;;;;;5112956;28;20382;-60
2022/05/27 01:48:07;;;;;;;12.95;3.33;;;13.50;99.90;;;;;;5113235;28;20592;-60
2022/05/27 01:50:37;;;;;;;9.70;2.67;;;13.40;99.90;;;;;;5094239;28;20050;-60
2022/05/27 01:53:30;;;;;;;12.13;3.22;;;13.40;99.90;;;;;;5112915;28;20373;-60
2022/05/27 01:56:19;;;;;;;12.27;3.08;;;13.40;99.90;;;;;;5112731;28;20392;-60
2022/05/27 01:58:54;;;;;;;12.45;3.05;;;13.40;99.90;;;;;;5112608;28;20139;-61
2022/05/27 02:01:26;;;;;;;10.07;2.97;;;13.30;99.90;;;;;;5112834;28;20069;-60
2022/05/27 02:04:06;;;;;;;15.85;2.85;;;13.30;99.90;;;;;;5094249;28;20052;-59
2022/05/27 02:06:41;;;;;;;13.13;3.28;;;13.30;99.90;;;;;;5112877;28;20123;-60
2022/05/27 02:09:07;;;;;;;11.32;2.80;;;13.30;99.90;;;;;;5112708;28;20480;-60
2022/05/27 02:11:33;;;;;;;14.63;3.28;;;13.30;99.90;;;;;;5112439;28;20127;-61
2022/05/27 02:14:08;;;;;;;16.50;3.10;;;13.20;99.90;;;;;;5112380;28;20040;-61
2022/05/27 02:16:42;;;;;;;18.67;3.03;;;13.20;99.90;;;;;;5094346;28;20119;-61
2022/05/27 02:19:36;;;;;;;13.05;2.83;;;13.20;99.90;;;;;;5112389;28;20079;-61
2022/05/27 02:22:40;;;;;;;13.20;3.03;;;13.10;99.90;;;;;;5112079;28;20254;-61
2022/05/27 02:25:15;;;;;;;13.35;3.22;;;13.10;99.90;;;;;;5107065;28;20056;-59
2022/05/27 02:27:55;;;;;;;13.45;3.38;;;13.00;99.90;;;;;;5093850;28;20449;-60
2022/05/27 02:30:29;;;;;;;19.10;3.83;;;13.00;99.90;;;;;;5112357;28;20048;-60
2022/05/27 02:36:15;;;;;;;10.65;2.80;;;12.90;99.90;;;;;;5112308;28;20074;-60
2022/05/27 02:38:41;;;;;;;12.00;2.95;;;12.90;99.90;;;;;;5112165;28;20175;-60
2022/05/27 02:41:25;;;;;;;12.32;2.90;;;12.80;99.90;;;;;;5111366;28;20069;-59
2022/05/27 02:44:23;;;;;;;15.10;3.07;;;12.80;99.90;;;;;;5111919;28;20048;-60
2022/05/27 02:47:09;;;;;;;17.08;3.22;;;12.80;99.90;;;;;;5104267;28;20142;-60
2022/05/27 02:49:42;;;;;;;14.77;3.20;;;12.80;99.90;;;;;;5112036;28;20043;-61
2022/05/27 02:52:33;;;;;;;13.02;3.28;;;12.70;99.90;;;;;;5093649;28;20272;-60
2022/05/27 02:55:07;;;;;;;21.02;3.25;;;12.70;99.90;;;;;;5093539;28;20044;-60
2022/05/27 02:57:39;;;;;;;;;;;12.70;99.90;;;;;;5112414;28;20056;-60
2022/05/27 03:00:18;;;;;;;10.70;3.47;;;12.60;99.90;;;;;;5111157;28;19926;-60
2022/05/27 03:02:44;;;;;;;13.73;3.03;;;12.60;99.90;;;;;;5111473;28;20617;-60
2022/05/27 03:05:10;;;;;;;12.60;2.78;;;12.60;99.90;;;;;;5111618;28;20139;-61
2022/05/27 03:07:53;;;;;;;13.20;3.30;;;12.50;99.90;;;;;;5093661;28;20055;-60
2022/05/27 03:10:29;;;;;;;13.82;3.00;;;12.50;99.90;;;;;;5111756;28;20036;-60
2022/05/27 03:13:32;;;;;;;10.95;2.65;;;12.50;99.90;;;;;;5111385;28;20360;-60
2022/05/27 03:16:13;;;;;;;11.65;2.70;;;12.50;99.90;;;;;;5095651;28;20075;-60
2022/05/27 03:18:44;;;;;;;11.57;2.92;;;12.40;99.90;;;;;;5093833;28;20426;-60
2022/05/27 03:21:35;;;;;;;9.95;3.03;;;12.50;99.90;;;;;;5111285;28;20051;-61
2022/05/27 03:24:18;;;;;;;12.68;3.00;;;12.40;99.90;;;;;;5078622;28;20138;-60
2022/05/27 03:27:10;;;;;;;12.52;2.53;;;12.40;99.90;;;;;;5093562;28;20079;-60
2022/05/27 03:30:07;;;;;;;10.88;3.40;;;12.40;99.90;;;;;;5093607;28;20052;-61
2022/05/27 03:32:48;;;;;;;11.55;2.90;;;12.30;99.90;;;;;;5093589;28;20051;-60
2022/05/27 03:35:38;;;;;;;10.93;2.80;;;12.30;99.90;;;;;;5111198;28;20212;-60
2022/05/27 03:38:39;;;;;;;13.52;3.15;;;12.30;99.90;;;;;;5110870;28;20484;-61
2022/05/27 03:41:18;;;;;;;12.88;2.78;;;12.30;99.90;;;;;;5110124;28;20047;-60
2022/05/27 03:43:44;;;;;;;10.65;2.88;;;12.30;99.90;;;;;;5111514;28;20044;-60
2022/05/27 03:46:10;;;;;;;13.25;3.45;;;12.30;99.90;;;;;;5111134;28;20052;-61
2022/05/27 03:48:36;;;;;;;12.80;3.03;;;12.30;99.90;;;;;;5093116;28;20393;-61
2022/05/27 03:51:21;;;;;;;13.05;2.83;;;12.30;99.90;;;;;;5111073;28;20048;-60
2022/05/27 03:54:05;;;;;;;12.40;2.65;;;12.30;99.90;;;;;;5111367;28;20048;-59
2022/05/27 03:56:36;;;;;;;11.05;3.03;;;12.40;99.90;;;;;;5095915;28;20139;-62
2022/05/27 03:59:03;;;;;;;14.90;3.33;;;12.40;99.90;;;;;;5110917;28;20047;-61
2022/05/27 04:01:30;;;;;;;11.40;2.70;;;12.40;99.90;;;;;;5111236;28;20388;-60
2022/05/27 04:04:03;;;;;;;12.93;2.92;;;12.40;99.90;;;;;;5075613;28;20059;-63
2022/05/27 04:06:29;;;;;;;14.77;2.88;;;12.40;99.90;;;;;;5111406;28;20039;-59
2022/05/27 04:08:57;;;;;;;9.02;2.58;;;12.40;99.90;;;;;;5111292;28;20047;-60
2022/05/27 04:11:23;;;;;;;11.25;3.00;;;12.50;99.90;;;;;;5111194;28;20055;-60
2022/05/27 04:13:49;;;;;;;12.35;3.25;;;12.50;99.90;;;;;;5114218;28;20104;-59
2022/05/27 04:16:15;;;;;;;10.48;2.90;;;12.50;99.90;;;;;;5096575;28;20130;-60
2022/05/27 04:18:41;;;;;;;9.43;2.60;;;12.50;99.90;;;;;;5114877;28;20051;-60
2022/05/27 04:21:07;;;;;;;10.15;2.90;;;12.60;99.90;;;;;;5096446;28;20048;-61
2022/05/27 04:23:33;;;;;;;10.70;2.90;;;12.60;99.90;;;;;;5114789;28;20043;-59
2022/05/27 04:25:59;;;;;;;14.10;3.33;;;12.60;99.90;;;;;;5114400;28;20043;-60
2022/05/27 04:28:25;;;;;;;9.75;2.97;;;12.50;99.90;;;;;;5114579;28;20278;-60
2022/05/27 04:30:50;;;;;;;12.60;3.60;;;12.50;99.90;;;;;;5114607;28;20038;-61
2022/05/27 04:33:16;;;;;;;9.63;2.97;;;12.50;99.90;;;;;;5114342;28;20396;-60
2022/05/27 04:35:42;;;;;;;14.85;2.60;;;12.50;99.90;;;;;;5114645;28;20130;-59
2022/05/27 04:38:09;;;;;;;16.50;3.20;;;12.50;99.90;;;;;;5079125;28;20048;-60
2022/05/27 04:40:35;;;;;;;14.48;3.33;;;12.50;99.90;;;;;;5096320;28;20431;-60
2022/05/27 04:43:02;;;;;;;12.52;2.67;;;12.50;99.90;;;;;;5114189;28;20050;-63
2022/05/27 04:45:28;;;;;;;11.18;3.05;;;12.50;99.90;;;;;;5114424;28;20416;-61
2022/05/27 04:47:55;;;;;;;10.23;2.70;;;12.60;99.90;;;;;;5114427;28;20048;-60
2022/05/27 04:50:20;;;;;;;13.57;2.97;;;12.60;99.90;;;;;;5114015;28;20122;-60
2022/05/27 04:52:46;;;;;;;11.30;2.67;;;12.70;99.90;;;;;;5096149;28;20139;-60
2022/05/27 04:55:14;;;;;;;10.98;2.88;;;12.80;99.90;;;;;;5113872;28;20039;-61
2022/05/27 04:57:51;;;;;;;12.68;2.63;;;12.90;99.90;;;;;;5114174;28;20177;-60
2022/05/27 05:00:20;;;;;;;14.50;3.78;;;12.90;99.90;;;;;;5113835;28;20079;-60
2022/05/27 05:02:46;;;;;;;10.48;2.65;;;13.00;99.90;;;;;;5113945;28;20370;-60
2022/05/27 05:05:14;;;;;;;11.30;3.25;;;13.00;99.90;;;;;;5113698;28;20054;-61
2022/05/27 05:07:41;;;;;;;16.02;3.30;;;13.00;99.90;;;;;;5113982;28;20178;-60
2022/05/27 05:10:09;;;;;;;11.43;3.45;;;12.90;99.90;;;;;;5095275;28;20462;-61
2022/05/27 05:12:35;;;;;;;14.07;3.15;;;13.00;99.90;;;;;;5114080;28;20043;-61
2022/05/27 05:15:00;;;;;;;13.77;2.65;;;13.10;99.90;;;;;;5113860;28;20050;-60
2022/05/27 05:17:26;;;;;;;12.07;3.72;;;13.30;99.90;;;;;;5113326;28;20107;-60
2022/05/27 05:19:55;;;;;;;10.13;2.70;;;13.50;99.90;;;;;;5113651;28;20045;-60
2022/05/27 05:22:22;;;;;;;9.50;2.95;;;13.50;99.90;;;;;;5113265;28;20046;-60
2022/05/27 05:24:49;;;;;;;11.85;2.65;;;13.60;99.90;;;;;;5113273;28;20548;-60
2022/05/27 05:27:15;;;;;;;15.88;3.28;;;13.50;99.90;;;;;;5113229;28;20130;-60
2022/05/27 05:29:40;;;;;;;17.13;3.08;;;13.40;99.90;;;;;;5113483;28;20100;-60
2022/05/27 05:32:07;;;;;;;13.70;3.17;;;13.30;99.90;;;;;;5113495;28;20044;-60
2022/05/27 05:34:32;;;;;;;12.07;3.33;;;13.20;99.90;;;;;;5113475;28;20134;-60
2022/05/27 05:36:58;;;;;;;13.60;3.47;;;13.20;99.90;;;;;;5095198;28;20126;-60
2022/05/27 05:39:24;;;;;;;15.00;2.72;;;13.10;99.90;;;;;;5095045;28;20133;-62
2022/05/27 05:42:02;;;;;;;12.05;2.83;;;13.10;99.90;;;;;;5095149;28;20039;-59
2022/05/27 05:44:30;;;;;;;14.45;3.30;;;13.40;99.90;;;;;;5095191;28;20043;-59
2022/05/27 05:46:56;;;;;;;11.57;2.80;;;14.20;99.90;;;;;;5078547;28;20098;-59
2022/05/27 05:49:22;;;;;;;10.90;2.70;;;15.40;99.90;;;;;;5112616;28;20453;-59
2022/05/27 05:51:49;;;;;;;7.03;2.53;;;16.50;99.90;;;;;;5113273;28;20113;-60
2022/05/27 05:54:15;;;;;;;11.52;2.58;;;17.20;99.90;;;;;;5094833;28;20040;-61
2022/05/27 05:56:41;;;;;;;10.02;2.55;;;17.20;99.90;;;;;;5112928;28;20048;-60
2022/05/27 05:59:07;;;;;;;12.55;2.97;;;17.00;99.90;;;;;;5094954;28;20483;-60
2022/05/27 06:01:33;;;;;;;10.60;2.85;;;17.00;99.90;;;;;;5112647;28;20050;-60
2022/05/27 06:03:59;;;;;;;9.45;2.42;;;17.20;99.90;;;;;;5112871;28;20051;-60
2022/05/27 06:06:25;;;;;;;11.95;2.63;;;17.80;99.90;;;;;;5094381;28;20047;-61
2022/05/27 06:08:50;;;;;;;10.82;3.33;;;18.10;99.90;;;;;;5094563;28;20036;-60
2022/05/27 06:11:16;;;;;;;11.77;3.20;;;18.70;99.90;;;;;;5112547;28;20090;-61
2022/05/27 06:13:42;;;;;;;11.23;3.17;;;19.00;99.90;;;;;;5112799;28;20043;-61
2022/05/27 06:16:09;;;;;;;11.65;2.85;;;19.60;99.90;;;;;;5112780;28;20043;-60
2022/05/27 06:18:35;;;;;;;11.60;3.42;;;19.80;99.40;;;;;;5112554;28;20401;-60
2022/05/27 06:21:02;;;;;;;13.20;3.38;;;19.50;98.30;;;;;;5112490;28;20083;-61
2022/05/27 06:23:28;;;;;;;11.43;3.10;;;19.40;97.80;;;;;;5094113;28;20537;-59
2022/05/27 06:25:59;;;;;;;12.77;3.67;;;19.50;97.90;;;;;;5094441;28;20043;-60
2022/05/27 06:36:42;;;;;;;11.73;2.90;;;20.50;95.50;;;;;;5111806;28;20406;-61
2022/05/27 06:39:08;;;;;;;9.02;2.97;;;20.90;95.30;;;;;;5094293;28;20354;-60
2022/05/27 06:41:34;;;;;;;12.48;3.20;;;21.30;94.30;;;;;;5111686;28;20060;-60
2022/05/27 06:44:01;;;;;;;12.32;2.92;;;21.20;93.50;;;;;;5094246;28;20044;-60
2022/05/27 06:46:28;;;;;;;11.25;3.40;;;21.90;93.00;;;;;;5111796;28;20039;-61
2022/05/27 06:48:54;;;;;;;10.77;2.83;;;21.70;91.10;;;;;;5112163;28;20404;-61
2022/05/27 06:51:20;;;;;;;9.15;2.72;;;21.70;91.40;;;;;;5111842;28;20043;-59
2022/05/27 06:53:47;;;;;;;9.25;2.63;;;21.30;91.20;;;;;;5093991;28;20577;-60
2022/05/27 06:56:13;;;;;;;11.77;3.15;;;21.40;91.50;;;;;;5112133;28;20238;-60
2022/05/27 06:58:40;;;;;;;15.10;3.30;;;21.20;90.80;;;;;;5111805;28;20082;-60
2022/05/27 07:01:07;;;;;;;7.50;2.92;;;21.00;88.10;;;;;;5111804;28;20043;-61
2022/05/27 07:03:34;;;;;;;10.15;2.85;;;21.30;86.80;;;;;;5111647;28;20059;-61
2022/05/27 07:06:00;;;;;;;10.77;3.38;;;21.60;86.10;;;;;;5093903;28;20043;-61
2022/05/27 07:08:26;;;;;;;10.98;3.10;;;21.70;84.80;;;;;;5111694;28;20066;-60
2022/05/27 07:10:51;;;;;;;9.85;2.78;;;22.20;82.90;;;;;;5093765;28;20047;-59
2022/05/27 07:13:18;;;;;;;8.85;2.83;;;22.40;81.50;;;;;;5093686;28;20047;-61
2022/05/27 07:15:44;;;;;;;8.45;2.58;;;22.20;81.10;;;;;;5111895;28;20203;-60
2022/05/27 07:18:11;;;;;;;10.23;3.28;;;22.30;81.40;;;;;;5111601;28;20080;-60
2022/05/27 07:20:38;;;;;;;9.15;2.70;;;22.60;80.50;;;;;;5093334;28;20126;-61
2022/05/27 07:23:04;;;;;;;11.60;3.42;;;22.90;81.70;;;;;;5111778;28;20146;-60
2022/05/27 07:25:35;;;;;;;10.55;3.20;;;23.20;80.20;;;;;;5111235;28;20090;-61
2022/05/27 07:28:06;;;;;;;12.60;2.67;;;23.10;81.90;;;;;;5111679;28;20079;-61
2022/05/27 07:30:35;;;;;;;10.55;2.80;;;22.80;81.00;;;;;;5111573;28;20043;-61
2022/05/27 07:33:01;;;;;;;11.68;3.17;;;22.60;81.00;;;;;;5111583;28;20123;-60
2022/05/27 07:35:27;;;;;;;12.85;2.92;;;21.60;81.80;;;;;;5111355;28;20044;-60
2022/05/27 07:37:53;;;;;;;11.55;3.00;;;20.90;83.40;;;;;;5111596;28;20051;-61
2022/05/27 07:40:19;;;;;;;8.82;2.75;;;21.10;84.30;;;;;;5093488;28;20094;-61
2022/05/27 07:42:45;;;;;;;13.45;3.33;;;21.10;84.50;;;;;;5093328;28;20040;-61
2022/05/27 07:45:12;;;;;;;10.77;3.45;;;20.70;83.70;;;;;;5111424;28;20096;-61
2022/05/27 07:47:38;;;;;;;10.60;3.28;;;21.00;84.50;;;;;;5114271;28;20553;-60
2022/05/27 07:50:05;;;;;;;12.85;3.47;;;21.60;84.20;;;;;;5115519;28;20046;-60
2022/05/27 07:52:34;;;;;;;14.70;3.63;;;21.40;85.40;;;;;;5115092;28;20075;-60
2022/05/27 07:55:03;;;;;;;11.05;2.83;;;20.90;84.90;;;;;;5097226;28;20449;-61
2022/05/27 07:57:29;;;;;;;11.77;3.10;;;20.40;84.40;;;;;;5114724;28;20502;-61
2022/05/27 07:59:54;;;;;;;9.55;3.13;;;20.30;84.10;;;;;;5115351;28;20047;-61
2022/05/27 08:02:24;;;;;;;9.20;2.90;;;20.00;85.50;;;;;;5115072;28;20040;-61
2022/05/27 08:04:51;;;;;;;10.20;3.42;;;20.60;86.30;;;;;;5115080;28;20051;-61
2022/05/27 08:07:17;;;;;;;8.95;3.10;;;21.60;85.10;;;;;;5114932;28;20047;-61
2022/05/27 08:09:43;;;;;;;9.60;3.50;;;22.20;83.30;;;;;;5079831;28;20047;-61
2022/05/27 08:12:09;;;;;;;7.95;3.00;;;21.80;82.20;;;;;;5096729;28;20047;-61
2022/05/27 08:14:35;;;;;;;9.82;2.70;;;21.50;83.70;;;;;;5114629;28;20100;-60
2022/05/27 08:17:01;;;;;;;10.23;2.90;;;22.00;84.70;;;;;;5079819;28;20051;-60
2022/05/27 08:19:27;;;;;;;6.05;2.50;;;21.70;83.20;;;;;;5114790;28;20047;-60
2022/05/27 08:21:53;;;;;;;9.75;2.55;;;21.00;82.20;;;;;;5096519;28;20044;-59
2022/05/27 08:24:18;;;;;;;7.68;2.38;;;21.00;82.10;;;;;;5115059;28;20385;-60
2022/05/27 08:26:45;;;;;;;10.88;3.00;;;21.40;83.00;;;;;;5096165;28;20043;-60
2022/05/27 08:29:12;;;;;;;9.73;2.65;;;21.80;82.40;;;;;;5114697;28;20043;-61
2022/05/27 08:31:39;;;;;;;10.95;3.00;;;21.40;83.20;;;;;;5114320;28;20122;-59
2022/05/27 08:39:37;;;;;;;9.02;2.42;;;21.10;83.30;;;;;;5114178;28;20047;-59
2022/05/27 08:42:14;;;;;;;9.77;2.55;;;20.80;83.30;;;;;;5114392;28;20044;-60
2022/05/27 08:45:04;;;;;;;9.20;2.70;;;20.80;84.10;;;;;;5114039;28;20122;-59
2022/05/27 08:47:37;;;;;;;12.20;3.10;;;21.30;84.60;;;;;;5114315;28;20079;-60
2022/05/27 08:50:24;;;;;;;9.77;2.83;;;21.80;82.70;;;;;;5114109;28;20593;-61
2022/05/27 08:52:56;;;;;;;12.23;3.50;;;22.20;82.50;;;;;;5114142;28;20116;-61
2022/05/27 09:01:29;;;;;;;8.35;3.05;;;21.30;86.90;;;;;;5114149;28;20083;-61
2022/05/27 09:04:17;;;;;;;9.65;2.80;;;21.70;83.00;;;;;;5095277;28;20052;-61
2022/05/27 09:06:59;;;;;;;9.88;2.83;;;20.80;81.90;;;;;;5113676;28;20519;-60
2022/05/27 09:09:30;;;;;;;8.85;2.70;;;20.00;83.90;;;;;;5114117;28;20122;-61
2022/05/27 09:12:01;;;;;;;10.98;3.08;;;19.90;84.30;;;;;;5113773;28;20153;-62
2022/05/27 09:14:31;;;;;;;11.35;3.20;;;19.60;85.50;;;;;;5113964;28;20054;-61
2022/05/27 09:17:05;;;;;;;11.60;3.80;;;19.10;86.90;;;;;;5113493;28;20051;-60
2022/05/27 09:19:49;;;;;;;12.85;2.80;;;18.90;87.70;;;;;;5113658;28;20059;-61
2022/05/27 09:22:38;;;;;;;10.52;2.60;;;19.30;86.20;;;;;;5113941;28;20079;-60
2022/05/27 09:25:26;;;;;;;11.57;3.13;;;19.20;87.50;;;;;;5113808;28;20079;-60
2022/05/27 09:28:03;;;;;;;13.52;2.88;;;19.20;88.30;;;;;;5113348;28;20055;-60
2022/05/27 09:30:33;;;;;;;11.18;3.20;;;19.40;88.00;;;;;;5095463;28;20058;-61
2022/05/27 09:33:03;;;;;;;10.85;3.17;;;19.50;88.00;;;;;;5113311;28;20139;-60
2022/05/27 09:35:58;;;;;;;14.68;3.40;;;19.90;87.40;;;;;;5113484;28;20567;-61
2022/05/27 09:38:29;;;;;;;10.82;3.55;;;20.10;86.70;;;;;;5113456;28;20046;-61
2022/05/27 09:40:58;;;;;;;11.63;3.47;;;20.00;86.80;;;;;;5113138;28;20047;-60
2022/05/27 09:43:49;;;;;;;14.00;3.35;;;20.10;86.60;;;;;;5113320;28;20062;-60
2022/05/27 09:46:28;;;;;;;11.35;3.58;;;19.90;86.80;;;;;;5095037;28;20052;-61
2022/05/27 09:48:57;;;;;;;9.05;2.92;;;19.80;86.50;;;;;;5113074;28;20047;-60
2022/05/27 09:51:24;;;;;;;14.07;3.25;;;19.90;86.90;;;;;;5095172;28;20130;-61
2022/05/27 09:53:54;;;;;;;9.82;2.80;;;19.60;86.80;;;;;;5094708;28;20287;-61
2022/05/27 09:56:42;;;;;;;12.30;3.22;;;19.50;88.20;;;;;;5113031;28;20043;-61
2022/05/27 09:59:38;;;;;;;10.77;3.30;;;19.20;89.10;;;;;;5113035;28;20050;-60
2022/05/27 10:02:33;;;;;;;8.15;3.13;;;18.80;87.60;;;;;;5113058;28;20039;-60
2022/05/27 10:05:28;;;;;;;11.63;3.10;;;18.70;88.80;;;;;;5112269;28;20078;-61
2022/05/27 10:07:57;;;;;;;;;;;18.90;89.60;;;;;;5105133;28;20059;-60
2022/05/27 10:10:29;;;;;;;11.30;2.90;;;18.90;89.60;;;;;;5111954;28;20334;-60
2022/05/27 10:12:57;;;;;;;8.77;3.00;;;18.90;89.70;;;;;;5094512;28;20047;-60
2022/05/27 10:15:36;;;;;;;14.77;3.75;;;19.00;89.70;;;;;;5112810;28;20048;-60
2022/05/27 10:18:32;;;;;;;10.90;3.08;;;18.80;89.70;;;;;;5112319;28;20043;-60
2022/05/27 10:21:19;;;;;;;9.75;2.75;;;18.80;89.90;;;;;;5062698;28;20047;-60
2022/05/27 10:23:49;;;;;;;11.90;3.58;;;18.60;90.10;;;;;;5093958;28;20465;-59
2022/05/27 10:26:35;;;;;;;16.58;3.90;;;18.50;91.00;;;;;;5112428;28;20100;-59
2022/05/27 10:29:01;;;;;;;11.95;3.35;;;18.30;90.60;;;;;;5111554;28;20134;-60
2022/05/27 10:31:28;;;;;;;14.20;3.50;;;18.40;90.50;;;;;;5112398;28;20044;-60
2022/05/27 10:33:53;;;;;;;13.85;3.92;;;18.50;91.40;;;;;;5094020;28;20473;-60
2022/05/27 10:36:44;;;;;;;12.18;3.38;;;18.50;90.80;;;;;;5112197;28;20189;-59
2022/05/27 10:39:35;;;;;;;17.05;3.53;;;18.60;91.00;;;;;;5112284;28;20059;-59
2022/05/27 10:42:19;;;;;;;13.80;3.65;;;18.30;90.70;;;;;;5093820;28;20050;-60
2022/05/27 10:44:45;;;;;;;;;;;18.50;91.40;;;;;;5094124;28;20050;-59
2022/05/27 10:47:41;;;;;;;12.80;3.75;;;18.30;91.40;;;;;;5112047;28;20395;-60
2022/05/27 10:50:47;;;;;;;11.68;3.55;;;18.60;92.30;;;;;;5093441;28;20051;-60
2022/05/27 10:53:26;;;;;;;14.57;3.50;;;18.70;91.10;;;;;;5009383;28;20049;-59
2022/05/27 10:56:20;;;;;;;11.05;3.35;;;18.70;90.70;;;;;;5102647;28;20051;-60
2022/05/27 11:02:36;;;;;;;11.35;3.10;;;18.40;92.10;;;;;;5111697;28;20361;-59
2022/05/27 11:05:35;;;;;;;12.95;3.38;;;18.40;91.50;;;;;;5111134;28;20477;-59
2022/05/27 11:08:24;;;;;;;13.40;3.40;;;18.00;91.20;;;;;;5093508;28;20056;-60
2022/05/27 11:11:17;;;;;;;11.70;3.03;;;17.90;91.60;;;;;;5093199;28;20048;-59
2022/05/27 11:17:28;;;;;;;11.82;3.25;;;17.90;91.40;;;;;;5111683;28;20580;-61
2022/05/27 11:20:13;;;;;;;15.68;3.15;;;18.10;91.80;;;;;;5111608;28;20084;-60
2022/05/27 11:23:15;;;;;;;12.15;3.40;;;18.00;91.10;;;;;;5115013;28;20475;-61
2022/05/27 11:26:05;;;;;;;11.40;3.03;;;17.70;91.80;;;;;;5116018;28;20130;-59
2022/05/27 11:29:08;;;;;;;12.48;3.25;;;17.70;92.60;;;;;;5097881;28;20181;-59
2022/05/27 11:31:48;;;;;;;14.20;3.35;;;17.50;92.30;;;;;;5097689;28;20055;-61
2022/05/27 11:34:22;;;;;;;11.32;3.17;;;17.60;92.10;;;;;;5115565;28;20052;-61
2022/05/27 11:37:23;;;;;;;13.50;3.10;;;17.50;92.70;;;;;;5115859;28;20055;-59
2022/05/27 11:39:58;;;;;;;16.42;3.55;;;17.70;92.30;;;;;;5115757;28;20057;-60
2022/05/27 11:42:43;;;;;;;11.27;3.00;;;17.70;92.20;;;;;;5097473;28;20094;-60
2022/05/27 11:45:30;;;;;;;10.80;3.00;;;18.00;92.20;;;;;;5115253;28;20461;-60
2022/05/27 11:47:59;;;;;;;13.57;3.38;;;17.80;91.90;;;;;;5115209;28;20118;-60
2022/05/27 11:50:45;;;;;;;13.23;3.78;;;17.80;92.60;;;;;;5115576;28;20068;-60
2022/05/27 11:53:35;;;;;;;9.20;2.72;;;17.60;92.40;;;;;;5115161;28;20515;-59
2022/05/27 11:56:13;;;;;;;8.45;3.00;;;17.50;92.40;;;;;;5115195;28;20396;-59
2022/05/27 11:58:43;;;;;;;8.48;2.90;;;17.50;92.40;;;;;;5115479;28;20055;-59
2022/05/27 12:01:11;;;;;;;14.70;2.88;;;17.30;92.50;;;;;;5114738;28;20522;-59
2022/05/27 12:03:58;;;;;;;11.60;2.65;;;17.30;93.00;;;;;;5115061;28;20052;-59
2022/05/27 12:06:54;;;;;;;15.00;3.03;;;17.30;92.90;;;;;;5115287;28;20051;-60
2022/05/27 12:09:35;;;;;;;14.93;3.03;;;17.40;92.50;;;;;;5115178;28;20128;-60
2022/05/27 12:12:10;;;;;;;10.77;2.90;;;17.10;92.70;;;;;;5114831;28;20093;-60
2022/05/27 12:14:38;;;;;;;13.68;3.30;;;17.00;92.90;;;;;;5115121;28;20401;-59
2022/05/27 12:17:11;;;;;;;7.65;2.75;;;17.20;93.00;;;;;;5114997;28;20040;-60
2022/05/27 12:19:42;;;;;;;11.10;2.75;;;17.30;92.40;;;;;;5114935;28;20130;-60
2022/05/27 12:22:14;;;;;;;10.07;3.03;;;17.40;93.00;;;;;;5114760;28;20035;-60
2022/05/27 12:24:47;;;;;;;14.93;3.78;;;17.50;92.70;;;;;;5115123;28;20040;-61
2022/05/27 12:27:15;;;;;;;12.27;3.35;;;17.40;93.00;;;;;;5114655;28;20039;-60
2022/05/27 12:29:46;;;;;;;10.85;2.85;;;17.40;93.40;;;;;;5114653;28;20058;-60
2022/05/27 12:32:13;;;;;;;9.43;2.95;;;17.60;93.20;;;;;;5114421;28;20054;-60
2022/05/27 12:34:42;;;;;;;10.77;2.85;;;17.30;92.40;;;;;;5095715;28;20138;-60
2022/05/27 12:37:13;;;;;;;11.82;3.28;;;17.30;93.20;;;;;;5114195;28;20043;-60
2022/05/27 12:39:44;;;;;;;14.52;3.88;;;17.40;92.80;;;;;;5096007;28;20039;-60
2022/05/27 12:42:18;;;;;;;12.27;3.55;;;17.30;93.40;;;;;;5114328;28;20048;-60
2022/05/27 12:44:45;;;;;;;11.80;3.00;;;17.30;93.20;;;;;;5114585;28;20050;-59
2022/05/27 12:47:28;;;;;;;10.75;3.33;;;17.30;93.80;;;;;;5095838;28;20460;-60
2022/05/27 12:50:03;;;;;;;11.75;3.40;;;17.30;93.60;;;;;;5096329;28;20039;-59
2022/05/27 12:52:29;;;;;;;12.60;3.25;;;17.30;93.90;;;;;;5114068;28;20508;-60
2022/05/27 12:54:56;;;;;;;13.02;3.45;;;17.20;93.80;;;;;;5114286;28;20048;-60
2022/05/27 13:03:05;;;;;;;11.45;2.70;;;17.50;92.70;;;;;;5113389;28;20060;-60
2022/05/27 13:06:11;;;;;;;14.30;3.13;;;17.50;92.70;;;;;;5096080;28;20293;-59
2022/05/27 13:08:42;;;;;;;10.80;2.88;;;17.40;92.90;;;;;;5113955;28;20091;-60
2022/05/27 13:11:34;;;;;;;13.27;2.75;;;17.10;92.90;;;;;;5113533;28;20044;-60
2022/05/27 13:14:19;;;;;;;12.88;3.17;;;17.10;93.10;;;;;;5090383;28;20083;-60
2022/05/27 13:17:01;;;;;;;11.73;2.58;;;17.30;93.20;;;;;;5095665;28;20083;-59
2022/05/27 13:19:49;;;;;;;11.27;2.50;;;17.30;92.10;;;;;;5113642;28;20098;-59
2022/05/27 13:22:30;;;;;;;11.80;3.33;;;17.40;93.40;;;;;;5113304;28;20054;-59
2022/05/27 13:25:27;;;;;;;9.13;2.80;;;17.30;93.00;;;;;;5113882;28;20108;-59
2022/05/27 13:28:24;;;;;;;14.93;3.33;;;17.40;93.20;;;;;;5113524;28;20127;-59
2022/05/27 13:31:02;;;;;;;12.38;2.95;;;17.30;93.20;;;;;;5113220;28;20105;-60
2022/05/27 13:33:39;;;;;;;15.35;3.25;;;17.20;93.30;;;;;;5113137;28;20049;-59
2022/05/27 13:36:21;;;;;;;12.75;3.47;;;17.10;93.80;;;;;;5113330;28;20054;-63
2022/05/27 13:39:08;;;;;;;12.75;2.85;;;17.00;93.60;;;;;;5095300;28;20067;-59
2022/05/27 13:41:43;;;;;;;12.52;2.40;;;16.90;93.20;;;;;;5095019;28;20127;-60
2022/05/27 13:44:11;;;;;;;10.90;2.85;;;16.90;93.70;;;;;;5112836;28;20412;-60
2022/05/27 13:46:44;;;;;;;15.75;3.20;;;16.80;93.40;;;;;;5112918;28;20047;-59
2022/05/27 13:49:18;;;;;;;13.25;3.15;;;16.90;93.60;;;;;;5094890;28;20047;-59